sensor_id;sensor_type;location;lat;lon;timestamp;P1;durP1;ratioP1;P2;durP2;ratioP2
25553;SDS011;13446;50.926;5.332;2022-08-01T00:00:23;3.25;;;1.63;;
25553;SDS011;13446;50.926;5.332;2022-08-01T00:02:49;3.67;;;1.83;;
25553;SDS011;13446;50.926;5.332;2022-08-01T00:05:15;3.53;;;1.70;;
25553;SDS011;13446;50.926;5.332;2022-08-01T00:07:41;4.00;;;1.70;;
25553;SDS011;13446;50.926;5.332;2022-08-01T00:10:08;2.35;;;1.60;;
25553;SDS011;13446;50.926;5.332;2022-08-01T00:12:38;3.17;;;1.65;;
25553;SDS011;13446;50.926;5.332;2022-08-01T00:15:05;2.00;;;1.70;;
25553;SDS011;13446;50.926;5.332;2022-08-01T00:17:33;4.82;;;1.67;;
25553;SDS011;13446;50.926;5.332;2022-08-01T00:19:59;3.00;;;1.52;;
25553;SDS011;13446;50.926;5.332;2022-08-01T00:22:25;3.20;;;1.70;;
25553;SDS011;13446;50.926;5.332;2022-08-01T00:24:51;6.07;;;1.90;;
25553;SDS011;13446;50.926;5.332;2022-08-01T00:27:17;4.05;;;1.70;;
25553;SDS011;13446;50.926;5.332;2022-08-01T00:29:42;5.00;;;1.60;;
25553;SDS011;13446;50.926;5.332;2022-08-01T00:32:09;2.15;;;1.55;;
25553;SDS011;13446;50.926;5.332;2022-08-01T00:34:35;3.75;;;1.45;;
25553;SDS011;13446;50.926;5.332;2022-08-01T00:37:01;3.28;;;1.67;;
25553;SDS011;13446;50.926;5.332;2022-08-01T00:39:26;7.80;;;1.88;;
25553;SDS011;13446;50.926;5.332;2022-08-01T00:41:52;3.38;;;1.70;;
25553;SDS011;13446;50.926;5.332;2022-08-01T00:44:18;2.60;;;1.65;;
25553;SDS011;13446;50.926;5.332;2022-08-01T00:46:45;3.33;;;2.05;;
25553;SDS011;13446;50.926;5.332;2022-08-01T00:49:11;4.47;;;1.73;;
25553;SDS011;13446;50.926;5.332;2022-08-01T00:51:36;3.03;;;1.55;;
25553;SDS011;13446;50.926;5.332;2022-08-01T00:54:03;4.50;;;1.80;;
25553;SDS011;13446;50.926;5.332;2022-08-01T00:56:29;5.80;;;1.95;;
25553;SDS011;13446;50.926;5.332;2022-08-01T00:58:56;3.67;;;1.50;;
25553;SDS011;13446;50.926;5.332;2022-08-01T01:01:23;4.78;;;1.65;;
25553;SDS011;13446;50.926;5.332;2022-08-01T01:03:49;3.67;;;1.50;;
25553;SDS011;13446;50.926;5.332;2022-08-01T01:08:58;3.75;;;1.30;;
25553;SDS011;13446;50.926;5.332;2022-08-01T01:11:32;3.30;;;1.75;;
25553;SDS011;13446;50.926;5.332;2022-08-01T01:14:10;4.18;;;1.70;;
25553;SDS011;13446;50.926;5.332;2022-08-01T01:16:44;5.32;;;1.60;;
25553;SDS011;13446;50.926;5.332;2022-08-01T01:19:13;3.55;;;1.70;;
25553;SDS011;13446;50.926;5.332;2022-08-01T01:21:58;3.40;;;1.60;;
25553;SDS011;13446;50.926;5.332;2022-08-01T01:27:02;2.60;;;1.63;;
25553;SDS011;13446;50.926;5.332;2022-08-01T01:29:48;5.47;;;1.90;;
25553;SDS011;13446;50.926;5.332;2022-08-01T01:32:30;5.13;;;1.75;;
25553;SDS011;13446;50.926;5.332;2022-08-01T01:34:59;4.30;;;1.63;;
25553;SDS011;13446;50.926;5.332;2022-08-01T01:37:30;7.55;;;1.90;;
25553;SDS011;13446;50.926;5.332;2022-08-01T01:39:59;3.92;;;2.00;;
25553;SDS011;13446;50.926;5.332;2022-08-01T01:42:27;3.40;;;1.98;;
25553;SDS011;13446;50.926;5.332;2022-08-01T01:44:55;3.88;;;1.83;;
25553;SDS011;13446;50.926;5.332;2022-08-01T01:47:22;2.78;;;1.80;;
25553;SDS011;13446;50.926;5.332;2022-08-01T01:49:49;4.13;;;2.20;;
25553;SDS011;13446;50.926;5.332;2022-08-01T01:52:18;4.05;;;2.10;;
25553;SDS011;13446;50.926;5.332;2022-08-01T01:54:48;3.45;;;2.20;;
25553;SDS011;13446;50.926;5.332;2022-08-01T01:57:16;9.43;;;2.50;;
25553;SDS011;13446;50.926;5.332;2022-08-01T01:59:44;3.95;;;2.15;;
25553;SDS011;13446;50.926;5.332;2022-08-01T02:02:10;4.43;;;2.17;;
25553;SDS011;13446;50.926;5.332;2022-08-01T02:04:39;5.07;;;2.47;;
25553;SDS011;13446;50.926;5.332;2022-08-01T02:07:10;4.93;;;2.40;;
25553;SDS011;13446;50.926;5.332;2022-08-01T02:09:39;3.80;;;2.10;;
25553;SDS011;13446;50.926;5.332;2022-08-01T02:12:09;13.15;;;2.63;;
25553;SDS011;13446;50.926;5.332;2022-08-01T02:14:36;6.45;;;2.78;;
25553;SDS011;13446;50.926;5.332;2022-08-01T02:17:05;5.20;;;2.58;;
25553;SDS011;13446;50.926;5.332;2022-08-01T02:19:32;6.32;;;2.40;;
25553;SDS011;13446;50.926;5.332;2022-08-01T02:22:04;3.53;;;2.33;;
25553;SDS011;13446;50.926;5.332;2022-08-01T02:24:36;4.93;;;2.63;;
25553;SDS011;13446;50.926;5.332;2022-08-01T02:27:07;6.05;;;2.30;;
25553;SDS011;13446;50.926;5.332;2022-08-01T02:29:42;6.07;;;2.83;;
25553;SDS011;13446;50.926;5.332;2022-08-01T02:32:19;5.65;;;2.70;;
25553;SDS011;13446;50.926;5.332;2022-08-01T02:34:49;11.30;;;3.10;;
25553;SDS011;13446;50.926;5.332;2022-08-01T02:37:17;8.32;;;3.10;;
25553;SDS011;13446;50.926;5.332;2022-08-01T02:39:46;8.23;;;2.88;;
25553;SDS011;13446;50.926;5.332;2022-08-01T02:42:15;6.47;;;3.30;;
25553;SDS011;13446;50.926;5.332;2022-08-01T02:44:43;8.75;;;3.10;;
25553;SDS011;13446;50.926;5.332;2022-08-01T02:47:12;10.75;;;3.00;;
25553;SDS011;13446;50.926;5.332;2022-08-01T02:49:42;6.78;;;3.20;;
25553;SDS011;13446;50.926;5.332;2022-08-01T02:52:11;9.75;;;3.33;;
25553;SDS011;13446;50.926;5.332;2022-08-01T02:57:08;9.27;;;3.10;;
25553;SDS011;13446;50.926;5.332;2022-08-01T02:59:36;9.05;;;3.33;;
25553;SDS011;13446;50.926;5.332;2022-08-01T03:02:03;8.30;;;3.72;;
25553;SDS011;13446;50.926;5.332;2022-08-01T03:04:30;9.80;;;3.33;;
25553;SDS011;13446;50.926;5.332;2022-08-01T03:06:58;11.45;;;3.22;;
25553;SDS011;13446;50.926;5.332;2022-08-01T03:09:28;5.00;;;2.97;;
25553;SDS011;13446;50.926;5.332;2022-08-01T03:11:56;8.07;;;3.53;;
25553;SDS011;13446;50.926;5.332;2022-08-01T03:14:25;6.22;;;3.03;;
25553;SDS011;13446;50.926;5.332;2022-08-01T03:16:52;8.77;;;3.45;;
25553;SDS011;13446;50.926;5.332;2022-08-01T03:19:20;6.60;;;3.92;;
25553;SDS011;13446;50.926;5.332;2022-08-01T03:21:49;6.72;;;3.65;;
25553;SDS011;13446;50.926;5.332;2022-08-01T03:24:16;7.68;;;3.90;;
25553;SDS011;13446;50.926;5.332;2022-08-01T03:26:43;8.15;;;3.90;;
25553;SDS011;13446;50.926;5.332;2022-08-01T03:29:11;8.52;;;4.30;;
25553;SDS011;13446;50.926;5.332;2022-08-01T03:31:40;8.15;;;4.13;;
25553;SDS011;13446;50.926;5.332;2022-08-01T03:34:09;5.78;;;4.10;;
25553;SDS011;13446;50.926;5.332;2022-08-01T03:36:38;8.45;;;4.32;;
25553;SDS011;13446;50.926;5.332;2022-08-01T03:39:18;6.72;;;4.15;;
25553;SDS011;13446;50.926;5.332;2022-08-01T03:41:50;8.00;;;4.43;;
25553;SDS011;13446;50.926;5.332;2022-08-01T03:44:29;7.47;;;4.20;;
25553;SDS011;13446;50.926;5.332;2022-08-01T03:46:58;5.78;;;4.45;;
25553;SDS011;13446;50.926;5.332;2022-08-01T03:49:29;7.68;;;5.22;;
25553;SDS011;13446;50.926;5.332;2022-08-01T03:51:56;8.25;;;4.35;;
25553;SDS011;13446;50.926;5.332;2022-08-01T03:54:24;10.02;;;5.07;;
25553;SDS011;13446;50.926;5.332;2022-08-01T03:56:53;13.85;;;5.30;;
25553;SDS011;13446;50.926;5.332;2022-08-01T03:59:19;10.73;;;4.78;;
25553;SDS011;13446;50.926;5.332;2022-08-01T04:01:47;10.35;;;5.10;;
25553;SDS011;13446;50.926;5.332;2022-08-01T04:04:13;9.77;;;4.88;;
25553;SDS011;13446;50.926;5.332;2022-08-01T04:06:40;14.45;;;5.03;;
25553;SDS011;13446;50.926;5.332;2022-08-01T04:09:06;16.48;;;5.68;;
25553;SDS011;13446;50.926;5.332;2022-08-01T04:11:33;9.75;;;5.03;;
25553;SDS011;13446;50.926;5.332;2022-08-01T04:13:58;13.40;;;5.30;;
25553;SDS011;13446;50.926;5.332;2022-08-01T04:16:24;9.68;;;4.63;;
25553;SDS011;13446;50.926;5.332;2022-08-01T04:18:50;8.93;;;4.63;;
25553;SDS011;13446;50.926;5.332;2022-08-01T04:21:17;13.63;;;4.97;;
25553;SDS011;13446;50.926;5.332;2022-08-01T04:23:47;13.80;;;5.47;;
25553;SDS011;13446;50.926;5.332;2022-08-01T04:26:14;12.90;;;5.55;;
25553;SDS011;13446;50.926;5.332;2022-08-01T04:28:43;9.55;;;5.50;;
25553;SDS011;13446;50.926;5.332;2022-08-01T04:31:10;13.25;;;5.30;;
25553;SDS011;13446;50.926;5.332;2022-08-01T04:33:42;9.57;;;5.65;;
25553;SDS011;13446;50.926;5.332;2022-08-01T04:36:12;7.78;;;4.85;;
25553;SDS011;13446;50.926;5.332;2022-08-01T04:38:40;12.48;;;5.38;;
25553;SDS011;13446;50.926;5.332;2022-08-01T04:41:12;10.65;;;5.63;;
25553;SDS011;13446;50.926;5.332;2022-08-01T04:43:40;15.70;;;5.70;;
25553;SDS011;13446;50.926;5.332;2022-08-01T04:46:06;13.40;;;5.95;;
25553;SDS011;13446;50.926;5.332;2022-08-01T04:48:34;10.20;;;6.38;;
25553;SDS011;13446;50.926;5.332;2022-08-01T04:51:02;8.63;;;5.93;;
25553;SDS011;13446;50.926;5.332;2022-08-01T04:53:28;15.50;;;6.30;;
25553;SDS011;13446;50.926;5.332;2022-08-01T04:55:57;12.10;;;5.72;;
25553;SDS011;13446;50.926;5.332;2022-08-01T04:58:23;10.52;;;6.60;;
25553;SDS011;13446;50.926;5.332;2022-08-01T05:00:49;13.57;;;6.68;;
25553;SDS011;13446;50.926;5.332;2022-08-01T05:03:15;10.38;;;6.22;;
25553;SDS011;13446;50.926;5.332;2022-08-01T05:05:40;10.50;;;6.43;;
25553;SDS011;13446;50.926;5.332;2022-08-01T05:08:06;15.50;;;6.68;;
25553;SDS011;13446;50.926;5.332;2022-08-01T05:10:32;16.38;;;7.13;;
25553;SDS011;13446;50.926;5.332;2022-08-01T05:12:58;13.43;;;7.05;;
25553;SDS011;13446;50.926;5.332;2022-08-01T05:15:23;12.07;;;5.88;;
25553;SDS011;13446;50.926;5.332;2022-08-01T05:17:49;14.95;;;8.30;;
25553;SDS011;13446;50.926;5.332;2022-08-01T05:20:15;19.02;;;9.43;;
25553;SDS011;13446;50.926;5.332;2022-08-01T05:22:41;25.60;;;11.30;;
25553;SDS011;13446;50.926;5.332;2022-08-01T05:25:07;26.52;;;12.40;;
25553;SDS011;13446;50.926;5.332;2022-08-01T05:27:33;26.48;;;12.60;;
25553;SDS011;13446;50.926;5.332;2022-08-01T05:30:07;19.88;;;12.80;;
25553;SDS011;13446;50.926;5.332;2022-08-01T05:32:33;24.08;;;13.13;;
25553;SDS011;13446;50.926;5.332;2022-08-01T05:34:59;23.58;;;13.18;;
25553;SDS011;13446;50.926;5.332;2022-08-01T05:37:25;24.75;;;12.82;;
25553;SDS011;13446;50.926;5.332;2022-08-01T05:39:50;30.13;;;13.73;;
25553;SDS011;13446;50.926;5.332;2022-08-01T05:42:16;22.15;;;12.93;;
25553;SDS011;13446;50.926;5.332;2022-08-01T05:44:42;22.65;;;13.30;;
25553;SDS011;13446;50.926;5.332;2022-08-01T05:47:07;19.95;;;12.60;;
25553;SDS011;13446;50.926;5.332;2022-08-01T05:49:33;21.45;;;13.30;;
25553;SDS011;13446;50.926;5.332;2022-08-01T05:51:59;23.50;;;13.02;;
25553;SDS011;13446;50.926;5.332;2022-08-01T05:54:26;19.55;;;12.55;;
25553;SDS011;13446;50.926;5.332;2022-08-01T05:56:52;18.80;;;11.65;;
25553;SDS011;13446;50.926;5.332;2022-08-01T05:59:24;22.00;;;13.25;;
25553;SDS011;13446;50.926;5.332;2022-08-01T06:01:50;17.38;;;11.40;;
25553;SDS011;13446;50.926;5.332;2022-08-01T06:04:16;11.73;;;8.68;;
25553;SDS011;13446;50.926;5.332;2022-08-01T06:06:43;11.52;;;8.40;;
25553;SDS011;13446;50.926;5.332;2022-08-01T06:09:08;7.90;;;6.18;;
25553;SDS011;13446;50.926;5.332;2022-08-01T06:11:34;9.43;;;6.68;;
25553;SDS011;13446;50.926;5.332;2022-08-01T06:14:00;10.85;;;5.75;;
25553;SDS011;13446;50.926;5.332;2022-08-01T06:16:27;11.57;;;6.63;;
25553;SDS011;13446;50.926;5.332;2022-08-01T06:18:52;11.30;;;6.50;;
25553;SDS011;13446;50.926;5.332;2022-08-01T06:21:20;9.88;;;6.75;;
25553;SDS011;13446;50.926;5.332;2022-08-01T06:23:46;10.73;;;7.03;;
25553;SDS011;13446;50.926;5.332;2022-08-01T06:26:11;10.88;;;6.82;;
25553;SDS011;13446;50.926;5.332;2022-08-01T06:28:37;11.30;;;7.22;;
25553;SDS011;13446;50.926;5.332;2022-08-01T06:31:03;9.80;;;7.20;;
25553;SDS011;13446;50.926;5.332;2022-08-01T06:33:29;12.13;;;7.18;;
25553;SDS011;13446;50.926;5.332;2022-08-01T06:35:55;12.95;;;7.38;;
25553;SDS011;13446;50.926;5.332;2022-08-01T06:38:20;11.60;;;7.35;;
25553;SDS011;13446;50.926;5.332;2022-08-01T06:40:46;14.30;;;7.53;;
25553;SDS011;13446;50.926;5.332;2022-08-01T06:43:12;12.23;;;8.25;;
25553;SDS011;13446;50.926;5.332;2022-08-01T06:45:41;13.13;;;8.38;;
25553;SDS011;13446;50.926;5.332;2022-08-01T06:48:07;12.15;;;9.05;;
25553;SDS011;13446;50.926;5.332;2022-08-01T06:50:33;20.27;;;9.45;;
25553;SDS011;13446;50.926;5.332;2022-08-01T06:53:00;13.98;;;9.30;;
25553;SDS011;13446;50.926;5.332;2022-08-01T06:55:26;18.83;;;10.77;;
25553;SDS011;13446;50.926;5.332;2022-08-01T06:57:52;15.05;;;10.05;;
25553;SDS011;13446;50.926;5.332;2022-08-01T07:00:19;18.05;;;10.73;;
25553;SDS011;13446;50.926;5.332;2022-08-01T07:02:48;20.35;;;10.40;;
25553;SDS011;13446;50.926;5.332;2022-08-01T07:05:14;18.30;;;10.50;;
25553;SDS011;13446;50.926;5.332;2022-08-01T07:07:40;18.38;;;10.57;;
25553;SDS011;13446;50.926;5.332;2022-08-01T07:10:06;18.35;;;10.55;;
25553;SDS011;13446;50.926;5.332;2022-08-01T07:12:33;19.65;;;10.32;;
25553;SDS011;13446;50.926;5.332;2022-08-01T07:15:02;15.80;;;10.18;;
25553;SDS011;13446;50.926;5.332;2022-08-01T07:17:29;17.85;;;9.50;;
25553;SDS011;13446;50.926;5.332;2022-08-01T07:19:55;13.75;;;9.48;;
25553;SDS011;13446;50.926;5.332;2022-08-01T07:22:20;16.05;;;9.38;;
25553;SDS011;13446;50.926;5.332;2022-08-01T07:24:47;14.05;;;8.82;;
25553;SDS011;13446;50.926;5.332;2022-08-01T07:27:14;15.10;;;8.40;;
25553;SDS011;13446;50.926;5.332;2022-08-01T07:29:40;13.32;;;8.55;;
25553;SDS011;13446;50.926;5.332;2022-08-01T07:32:09;17.33;;;9.52;;
25553;SDS011;13446;50.926;5.332;2022-08-01T07:34:34;14.27;;;8.85;;
25553;SDS011;13446;50.926;5.332;2022-08-01T07:37:00;13.85;;;8.60;;
25553;SDS011;13446;50.926;5.332;2022-08-01T07:39:26;14.32;;;7.65;;
25553;SDS011;13446;50.926;5.332;2022-08-01T07:41:51;16.90;;;8.57;;
25553;SDS011;13446;50.926;5.332;2022-08-01T07:44:17;11.75;;;7.65;;
25553;SDS011;13446;50.926;5.332;2022-08-01T07:46:43;10.13;;;6.47;;
25553;SDS011;13446;50.926;5.332;2022-08-01T07:49:08;11.73;;;7.45;;
25553;SDS011;13446;50.926;5.332;2022-08-01T07:51:34;10.75;;;6.25;;
25553;SDS011;13446;50.926;5.332;2022-08-01T07:54:00;9.48;;;4.93;;
25553;SDS011;13446;50.926;5.332;2022-08-01T07:56:25;7.03;;;4.53;;
25553;SDS011;13446;50.926;5.332;2022-08-01T07:58:51;5.63;;;3.90;;
25553;SDS011;13446;50.926;5.332;2022-08-01T08:01:17;6.28;;;4.35;;
25553;SDS011;13446;50.926;5.332;2022-08-01T08:03:43;9.55;;;4.70;;
25553;SDS011;13446;50.926;5.332;2022-08-01T08:06:08;6.20;;;4.90;;
25553;SDS011;13446;50.926;5.332;2022-08-01T08:08:34;7.95;;;5.22;;
25553;SDS011;13446;50.926;5.332;2022-08-01T08:11:00;8.65;;;5.97;;
25553;SDS011;13446;50.926;5.332;2022-08-01T08:13:26;7.82;;;5.40;;
25553;SDS011;13446;50.926;5.332;2022-08-01T08:15:52;6.45;;;5.40;;
25553;SDS011;13446;50.926;5.332;2022-08-01T08:18:17;7.05;;;4.85;;
25553;SDS011;13446;50.926;5.332;2022-08-01T08:20:43;9.15;;;5.22;;
25553;SDS011;13446;50.926;5.332;2022-08-01T08:23:10;6.30;;;4.78;;
25553;SDS011;13446;50.926;5.332;2022-08-01T08:25:54;7.50;;;5.47;;
25553;SDS011;13446;50.926;5.332;2022-08-01T08:28:20;8.90;;;5.60;;
25553;SDS011;13446;50.926;5.332;2022-08-01T08:30:46;9.55;;;5.65;;
25553;SDS011;13446;50.926;5.332;2022-08-01T08:33:12;12.48;;;6.50;;
25553;SDS011;13446;50.926;5.332;2022-08-01T08:35:39;12.57;;;5.88;;
25553;SDS011;13446;50.926;5.332;2022-08-01T08:38:08;7.97;;;5.53;;
25553;SDS011;13446;50.926;5.332;2022-08-01T08:40:35;7.00;;;4.90;;
25553;SDS011;13446;50.926;5.332;2022-08-01T08:43:03;7.18;;;4.60;;
25553;SDS011;13446;50.926;5.332;2022-08-01T08:45:30;4.53;;;4.13;;
25553;SDS011;13446;50.926;5.332;2022-08-01T08:47:56;5.00;;;4.32;;
25553;SDS011;13446;50.926;5.332;2022-08-01T08:50:23;5.05;;;3.70;;
25553;SDS011;13446;50.926;5.332;2022-08-01T08:52:50;5.45;;;3.72;;
25553;SDS011;13446;50.926;5.332;2022-08-01T08:55:19;5.07;;;3.50;;
25553;SDS011;13446;50.926;5.332;2022-08-01T08:57:45;3.88;;;3.15;;
25553;SDS011;13446;50.926;5.332;2022-08-01T09:00:12;4.45;;;3.20;;
25553;SDS011;13446;50.926;5.332;2022-08-01T09:02:47;3.75;;;3.45;;
25553;SDS011;13446;50.926;5.332;2022-08-01T09:05:20;3.78;;;2.83;;
25553;SDS011;13446;50.926;5.332;2022-08-01T09:07:51;2.80;;;2.33;;
25553;SDS011;13446;50.926;5.332;2022-08-01T09:10:17;3.25;;;2.80;;
25553;SDS011;13446;50.926;5.332;2022-08-01T09:18:04;3.70;;;3.33;;
25553;SDS011;13446;50.926;5.332;2022-08-01T09:20:31;3.63;;;3.33;;
25553;SDS011;13446;50.926;5.332;2022-08-01T09:22:59;2.95;;;2.50;;
25553;SDS011;13446;50.926;5.332;2022-08-01T09:25:25;2.42;;;2.22;;
25553;SDS011;13446;50.926;5.332;2022-08-01T09:28:04;4.00;;;3.03;;
25553;SDS011;13446;50.926;5.332;2022-08-01T09:30:36;3.25;;;2.95;;
25553;SDS011;13446;50.926;5.332;2022-08-01T09:33:04;3.28;;;3.00;;
25553;SDS011;13446;50.926;5.332;2022-08-01T09:35:31;5.60;;;2.78;;
25553;SDS011;13446;50.926;5.332;2022-08-01T09:38:14;5.05;;;2.95;;
25553;SDS011;13446;50.926;5.332;2022-08-01T09:40:46;2.80;;;2.50;;
25553;SDS011;13446;50.926;5.332;2022-08-01T09:43:16;2.83;;;2.47;;
25553;SDS011;13446;50.926;5.332;2022-08-01T09:45:42;2.67;;;2.40;;
25553;SDS011;13446;50.926;5.332;2022-08-01T09:48:09;2.60;;;2.17;;
25553;SDS011;13446;50.926;5.332;2022-08-01T09:50:43;4.80;;;2.00;;
25553;SDS011;13446;50.926;5.332;2022-08-01T09:53:13;3.63;;;1.90;;
25553;SDS011;13446;50.926;5.332;2022-08-01T09:55:40;2.67;;;2.00;;
25553;SDS011;13446;50.926;5.332;2022-08-01T09:58:06;1.98;;;1.70;;
25553;SDS011;13446;50.926;5.332;2022-08-01T10:00:32;2.45;;;1.88;;
25553;SDS011;13446;50.926;5.332;2022-08-01T10:02:59;3.92;;;1.92;;
25553;SDS011;13446;50.926;5.332;2022-08-01T10:05:43;2.95;;;1.90;;
25553;SDS011;13446;50.926;5.332;2022-08-01T10:08:09;3.08;;;2.20;;
25553;SDS011;13446;50.926;5.332;2022-08-01T10:10:37;4.35;;;2.53;;
25553;SDS011;13446;50.926;5.332;2022-08-01T10:13:03;3.45;;;2.28;;
25553;SDS011;13446;50.926;5.332;2022-08-01T10:15:29;3.70;;;2.15;;
25553;SDS011;13446;50.926;5.332;2022-08-01T10:17:57;3.63;;;1.70;;
25553;SDS011;13446;50.926;5.332;2022-08-01T10:20:26;1.75;;;1.60;;
25553;SDS011;13446;50.926;5.332;2022-08-01T10:22:54;3.37;;;1.77;;
25553;SDS011;13446;50.926;5.332;2022-08-01T10:25:22;2.70;;;1.70;;
25553;SDS011;13446;50.926;5.332;2022-08-01T10:27:52;3.13;;;1.70;;
25553;SDS011;13446;50.926;5.332;2022-08-01T10:30:22;2.33;;;1.60;;
25553;SDS011;13446;50.926;5.332;2022-08-01T10:32:48;2.22;;;1.60;;
25553;SDS011;13446;50.926;5.332;2022-08-01T10:35:17;2.47;;;2.00;;
25553;SDS011;13446;50.926;5.332;2022-08-01T10:37:44;3.33;;;1.83;;
25553;SDS011;13446;50.926;5.332;2022-08-01T10:40:14;4.32;;;1.67;;
25553;SDS011;13446;50.926;5.332;2022-08-01T10:42:44;5.22;;;1.85;;
25553;SDS011;13446;50.926;5.332;2022-08-01T10:47:57;3.33;;;1.60;;
25553;SDS011;13446;50.926;5.332;2022-08-01T10:50:31;3.50;;;1.77;;
25553;SDS011;13446;50.926;5.332;2022-08-01T10:53:11;3.17;;;1.83;;
25553;SDS011;13446;50.926;5.332;2022-08-01T10:58:27;3.90;;;1.10;;
25553;SDS011;13446;50.926;5.332;2022-08-01T11:06:28;2.03;;;1.50;;
25553;SDS011;13446;50.926;5.332;2022-08-01T11:09:04;3.85;;;1.60;;
25553;SDS011;13446;50.926;5.332;2022-08-01T11:11:57;4.88;;;1.98;;
25553;SDS011;13446;50.926;5.332;2022-08-01T11:14:22;1.75;;;1.50;;
25553;SDS011;13446;50.926;5.332;2022-08-01T11:16:48;1.88;;;1.60;;
25553;SDS011;13446;50.926;5.332;2022-08-01T11:19:14;1.55;;;1.45;;
25553;SDS011;13446;50.926;5.332;2022-08-01T11:27:21;1.88;;;1.60;;
25553;SDS011;13446;50.926;5.332;2022-08-01T11:32:51;2.45;;;1.40;;
25553;SDS011;13446;50.926;5.332;2022-08-01T11:35:19;3.50;;;1.27;;
25553;SDS011;13446;50.926;5.332;2022-08-01T11:37:46;3.13;;;1.52;;
25553;SDS011;13446;50.926;5.332;2022-08-01T11:40:19;2.05;;;1.30;;
25553;SDS011;13446;50.926;5.332;2022-08-01T11:42:51;1.92;;;1.67;;
25553;SDS011;13446;50.926;5.332;2022-08-01T11:45:51;3.55;;;1.70;;
25553;SDS011;13446;50.926;5.332;2022-08-01T11:48:23;2.63;;;1.48;;
25553;SDS011;13446;50.926;5.332;2022-08-01T11:50:56;3.13;;;1.45;;
25553;SDS011;13446;50.926;5.332;2022-08-01T11:53:22;1.75;;;1.65;;
25553;SDS011;13446;50.926;5.332;2022-08-01T11:55:49;1.80;;;1.70;;
25553;SDS011;13446;50.926;5.332;2022-08-01T11:58:20;2.75;;;1.77;;
25553;SDS011;13446;50.926;5.332;2022-08-01T12:00:55;1.77;;;1.67;;
25553;SDS011;13446;50.926;5.332;2022-08-01T12:03:26;1.70;;;1.52;;
25553;SDS011;13446;50.926;5.332;2022-08-01T12:05:57;1.95;;;1.67;;
25553;SDS011;13446;50.926;5.332;2022-08-01T12:08:28;2.85;;;1.90;;
25553;SDS011;13446;50.926;5.332;2022-08-01T12:11:02;1.88;;;1.77;;
25553;SDS011;13446;50.926;5.332;2022-08-01T12:13:38;1.48;;;1.30;;
25553;SDS011;13446;50.926;5.332;2022-08-01T12:16:09;1.50;;;1.38;;
25553;SDS011;13446;50.926;5.332;2022-08-01T12:21:05;2.30;;;1.45;;
25553;SDS011;13446;50.926;5.332;2022-08-01T12:23:30;1.60;;;1.50;;
25553;SDS011;13446;50.926;5.332;2022-08-01T12:25:56;1.58;;;1.48;;
25553;SDS011;13446;50.926;5.332;2022-08-01T12:28:22;2.20;;;1.30;;
25553;SDS011;13446;50.926;5.332;2022-08-01T12:30:48;3.17;;;1.40;;
25553;SDS011;13446;50.926;5.332;2022-08-01T12:33:16;13.38;;;2.00;;
25553;SDS011;13446;50.926;5.332;2022-08-01T12:35:43;2.33;;;1.20;;
25553;SDS011;13446;50.926;5.332;2022-08-01T12:40:41;6.38;;;1.33;;
25553;SDS011;13446;50.926;5.332;2022-08-01T12:43:09;1.45;;;1.08;;
25553;SDS011;13446;50.926;5.332;2022-08-01T12:45:36;3.03;;;1.55;;
25553;SDS011;13446;50.926;5.332;2022-08-01T12:48:09;1.23;;;1.13;;
25553;SDS011;13446;50.926;5.332;2022-08-01T12:50:37;3.55;;;0.93;;
25553;SDS011;13446;50.926;5.332;2022-08-01T12:53:04;1.27;;;0.90;;
25553;SDS011;13446;50.926;5.332;2022-08-01T12:55:30;1.20;;;1.10;;
25553;SDS011;13446;50.926;5.332;2022-08-01T12:58:06;4.13;;;1.10;;
25553;SDS011;13446;50.926;5.332;2022-08-01T13:00:35;1.20;;;0.90;;
25553;SDS011;13446;50.926;5.332;2022-08-01T13:08:18;3.38;;;0.90;;
25553;SDS011;13446;50.926;5.332;2022-08-01T13:10:45;1.50;;;1.00;;
25553;SDS011;13446;50.926;5.332;2022-08-01T13:13:12;2.42;;;1.13;;
25553;SDS011;13446;50.926;5.332;2022-08-01T13:15:39;3.03;;;1.05;;
25553;SDS011;13446;50.926;5.332;2022-08-01T13:21:12;4.68;;;0.80;;
25553;SDS011;13446;50.926;5.332;2022-08-01T13:23:41;4.03;;;1.02;;
25553;SDS011;13446;50.926;5.332;2022-08-01T13:26:43;6.22;;;1.25;;
25553;SDS011;13446;50.926;5.332;2022-08-01T13:29:35;16.27;;;1.40;;
25553;SDS011;13446;50.926;5.332;2022-08-01T13:32:15;2.60;;;1.23;;
25553;SDS011;13446;50.926;5.332;2022-08-01T13:34:42;2.58;;;1.25;;
25553;SDS011;13446;50.926;5.332;2022-08-01T13:37:08;2.72;;;1.30;;
25553;SDS011;13446;50.926;5.332;2022-08-01T13:39:34;6.13;;;1.20;;
25553;SDS011;13446;50.926;5.332;2022-08-01T13:42:09;3.80;;;1.60;;
25553;SDS011;13446;50.926;5.332;2022-08-01T13:44:39;7.28;;;1.75;;
25553;SDS011;13446;50.926;5.332;2022-08-01T13:47:06;2.55;;;1.20;;
25553;SDS011;13446;50.926;5.332;2022-08-01T13:49:33;4.47;;;1.55;;
25553;SDS011;13446;50.926;5.332;2022-08-01T13:51:59;3.00;;;1.40;;
25553;SDS011;13446;50.926;5.332;2022-08-01T13:54:25;3.28;;;1.40;;
25553;SDS011;13446;50.926;5.332;2022-08-01T13:56:51;1.60;;;1.45;;
25553;SDS011;13446;50.926;5.332;2022-08-01T13:59:18;2.92;;;1.20;;
25553;SDS011;13446;50.926;5.332;2022-08-01T14:01:43;5.95;;;1.60;;
25553;SDS011;13446;50.926;5.332;2022-08-01T14:04:09;12.82;;;1.67;;
25553;SDS011;13446;50.926;5.332;2022-08-01T14:06:35;3.45;;;1.60;;
25553;SDS011;13446;50.926;5.332;2022-08-01T14:09:01;3.03;;;1.75;;
25553;SDS011;13446;50.926;5.332;2022-08-01T14:11:28;3.88;;;1.65;;
25553;SDS011;13446;50.926;5.332;2022-08-01T14:13:54;6.85;;;1.85;;
25553;SDS011;13446;50.926;5.332;2022-08-01T14:16:19;2.95;;;1.60;;
25553;SDS011;13446;50.926;5.332;2022-08-01T14:18:45;3.00;;;1.70;;
25553;SDS011;13446;50.926;5.332;2022-08-01T14:21:11;2.58;;;1.60;;
25553;SDS011;13446;50.926;5.332;2022-08-01T14:23:37;2.78;;;1.50;;
25553;SDS011;13446;50.926;5.332;2022-08-01T14:26:03;5.55;;;1.63;;
25553;SDS011;13446;50.926;5.332;2022-08-01T14:28:29;5.30;;;1.88;;
25553;SDS011;13446;50.926;5.332;2022-08-01T14:30:58;4.38;;;1.70;;
25553;SDS011;13446;50.926;5.332;2022-08-01T14:33:24;8.40;;;1.77;;
25553;SDS011;13446;50.926;5.332;2022-08-01T14:35:51;6.75;;;1.55;;
25553;SDS011;13446;50.926;5.332;2022-08-01T14:38:17;5.10;;;1.70;;
25553;SDS011;13446;50.926;5.332;2022-08-01T14:40:42;2.33;;;1.55;;
25553;SDS011;13446;50.926;5.332;2022-08-01T14:43:09;4.30;;;1.75;;
25553;SDS011;13446;50.926;5.332;2022-08-01T14:45:35;3.85;;;1.70;;
25553;SDS011;13446;50.926;5.332;2022-08-01T14:48:01;6.30;;;1.80;;
25553;SDS011;13446;50.926;5.332;2022-08-01T14:50:26;5.97;;;3.33;;
25553;SDS011;13446;50.926;5.332;2022-08-01T14:52:52;7.57;;;2.53;;
25553;SDS011;13446;50.926;5.332;2022-08-01T14:55:18;9.68;;;2.15;;
25553;SDS011;13446;50.926;5.332;2022-08-01T14:57:48;5.35;;;3.15;;
25553;SDS011;13446;50.926;5.332;2022-08-01T15:00:14;2.78;;;2.35;;
25553;SDS011;13446;50.926;5.332;2022-08-01T15:02:40;4.47;;;2.55;;
25553;SDS011;13446;50.926;5.332;2022-08-01T15:05:07;6.88;;;1.92;;
25553;SDS011;13446;50.926;5.332;2022-08-01T15:07:34;5.03;;;1.90;;
25553;SDS011;13446;50.926;5.332;2022-08-01T15:10:00;2.53;;;1.70;;
25553;SDS011;13446;50.926;5.332;2022-08-01T15:12:27;2.67;;;1.83;;
25553;SDS011;13446;50.926;5.332;2022-08-01T15:14:52;2.17;;;1.50;;
25553;SDS011;13446;50.926;5.332;2022-08-01T15:19:46;6.20;;;1.65;;
25553;SDS011;13446;50.926;5.332;2022-08-01T15:22:18;4.25;;;1.60;;
25553;SDS011;13446;50.926;5.332;2022-08-01T15:24:44;4.18;;;1.83;;
25553;SDS011;13446;50.926;5.332;2022-08-01T15:27:10;3.60;;;1.90;;
25553;SDS011;13446;50.926;5.332;2022-08-01T15:29:36;6.40;;;1.85;;
25553;SDS011;13446;50.926;5.332;2022-08-01T15:32:03;6.57;;;1.85;;
25553;SDS011;13446;50.926;5.332;2022-08-01T15:34:31;6.50;;;1.60;;
25553;SDS011;13446;50.926;5.332;2022-08-01T15:36:57;2.83;;;1.50;;